createdAt,value
2022-10-12T00:03:45.059Z,13.50
2022-10-12T00:08:47.747Z,13.50
2022-10-12T00:13:49.913Z,13.40
2022-10-12T00:18:52.833Z,13.50
2022-10-12T00:23:57.576Z,13.40
2022-10-12T00:29:01.493Z,13.40
2022-10-12T00:34:03.996Z,13.30
2022-10-12T00:39:08.383Z,13.30
2022-10-12T00:44:36.568Z,13.20
2022-10-12T00:49:38.520Z,13.20
2022-10-12T00:54:43.732Z,13.20
2022-10-12T01:00:01.804Z,13.10
2022-10-12T01:05:04.813Z,13.10
2022-10-12T01:10:07.405Z,13.00
2022-10-12T01:15:10.764Z,13.00
2022-10-12T01:20:31.537Z,12.90
2022-10-12T01:25:52.163Z,12.80
2022-10-12T01:31:01.095Z,12.80
2022-10-12T01:36:18.088Z,12.70
2022-10-12T01:41:25.626Z,12.70
2022-10-12T01:46:27.396Z,12.60
2022-10-12T01:51:50.119Z,12.60
2022-10-12T01:57:04.595Z,12.50
2022-10-12T02:02:30.068Z,12.50
2022-10-12T02:07:42.809Z,12.40
2022-10-12T02:12:46.066Z,12.40
2022-10-12T02:17:49.378Z,12.40
2022-10-12T02:22:52.076Z,12.40
2022-10-12T02:28:04.291Z,12.40
2022-10-12T02:33:19.375Z,12.30
2022-10-12T02:38:43.786Z,12.20
2022-10-12T02:43:54.290Z,12.20
2022-10-12T02:48:57.124Z,12.10
2022-10-12T02:53:59.848Z,12.10
2022-10-12T02:59:01.776Z,12.10
2022-10-12T03:04:03.805Z,12.10
2022-10-12T03:09:05.621Z,12.10
2022-10-12T03:14:07.481Z,12.00
2022-10-12T03:19:09.750Z,12.00
2022-10-12T03:24:11.773Z,11.90
2022-10-12T03:29:22.788Z,11.80
2022-10-12T03:34:24.716Z,11.80
2022-10-12T03:39:26.579Z,11.80
2022-10-12T03:44:28.455Z,11.80
2022-10-12T03:49:30.293Z,11.70
2022-10-12T03:54:32.117Z,11.70
2022-10-12T03:59:33.978Z,11.60
2022-10-12T04:04:35.893Z,11.50
2022-10-12T04:09:37.877Z,11.40
2022-10-12T04:14:40.160Z,11.30
2022-10-12T04:19:42.325Z,11.30
2022-10-12T04:24:44.144Z,11.20
2022-10-12T04:29:46.074Z,11.10
2022-10-12T04:34:47.953Z,11.00
2022-10-12T04:39:49.916Z,10.90
2022-10-12T04:44:52.001Z,10.80
2022-10-12T04:49:53.871Z,10.80
2022-10-12T04:54:55.747Z,10.70
2022-10-12T04:59:57.589Z,10.60
2022-10-12T05:04:59.486Z,10.60
2022-10-12T05:10:01.584Z,10.60
2022-10-12T05:15:04.266Z,10.50
2022-10-12T05:20:06.806Z,10.50
2022-10-12T05:25:09.247Z,10.50
2022-10-12T05:30:11.978Z,10.50
2022-10-12T05:35:13.850Z,10.60
2022-10-12T05:40:15.688Z,10.60
2022-10-12T05:45:17.851Z,10.60
2022-10-12T05:50:19.701Z,10.70
2022-10-12T05:55:21.525Z,10.80
2022-10-12T06:00:23.669Z,10.80
2022-10-12T06:05:25.720Z,10.90
2022-10-12T06:10:29.970Z,11.00
2022-10-12T06:15:32.032Z,11.10
2022-10-12T06:20:33.865Z,11.20
2022-10-12T06:25:35.707Z,11.40
2022-10-12T06:30:37.585Z,11.50
2022-10-12T06:35:39.407Z,11.60
2022-10-12T06:40:41.427Z,11.80
2022-10-12T06:45:43.444Z,11.80
2022-10-12T06:50:46.605Z,11.90
2022-10-12T06:55:49.183Z,12.00
2022-10-12T07:00:51.643Z,12.10
2022-10-12T07:05:53.509Z,12.20
2022-10-12T07:11:03.721Z,12.30
2022-10-12T07:16:05.764Z,12.40
2022-10-12T07:21:07.681Z,12.60
2022-10-12T07:26:09.701Z,12.70
2022-10-12T07:31:11.700Z,12.80
2022-10-12T07:36:15.063Z,12.90
2022-10-12T07:41:22.615Z,13.00
2022-10-12T07:46:25.980Z,13.10
2022-10-12T07:51:27.880Z,13.20
2022-10-12T07:56:29.760Z,13.20
2022-10-12T08:01:32.365Z,13.40
2022-10-12T08:06:34.547Z,13.60
2022-10-12T08:11:42.257Z,13.70
2022-10-12T08:16:44.709Z,13.90
2022-10-12T08:21:46.559Z,14.10
2022-10-12T08:26:48.402Z,14.20
2022-10-12T08:31:51.217Z,14.30
2022-10-12T08:36:53.067Z,14.40
2022-10-12T08:42:17.694Z,14.70
2022-10-12T08:47:38.299Z,14.90
2022-10-12T08:52:46.773Z,15.00
2022-10-12T08:57:50.031Z,15.20
2022-10-12T09:03:16.172Z,15.50
2022-10-12T09:08:53.757Z,15.80
2022-10-12T09:14:10.637Z,15.90
2022-10-12T09:19:19.717Z,16.20
2022-10-12T09:24:26.804Z,16.40
2022-10-12T09:29:31.289Z,16.80
2022-10-12T09:34:33.149Z,17.00
2022-10-12T09:39:36.878Z,17.30
2022-10-12T09:44:43.080Z,17.20
2022-10-12T09:49:50.375Z,17.20
2022-10-12T09:54:55.527Z,17.00
2022-10-12T09:59:57.784Z,16.90
2022-10-12T10:05:20.775Z,17.00
2022-10-12T10:10:29.281Z,17.20
2022-10-12T10:15:34.405Z,17.40
2022-10-12T10:20:43.826Z,17.30
2022-10-12T10:26:04.454Z,17.20
2022-10-12T10:31:21.911Z,17.00
2022-10-12T10:36:26.729Z,17.00
2022-10-12T10:41:37.081Z,17.30
2022-10-12T10:46:39.226Z,17.60
2022-10-12T10:51:54.076Z,17.80
2022-10-12T10:57:11.384Z,18.10
2022-10-12T11:02:19.355Z,18.10
2022-10-12T11:07:43.018Z,18.20
2022-10-12T11:12:49.780Z,18.20
2022-10-12T11:18:00.795Z,18.20
2022-10-12T11:23:17.493Z,18.40
2022-10-12T11:28:19.379Z,18.70
2022-10-12T11:33:24.061Z,18.60
2022-10-12T11:38:38.797Z,18.60
2022-10-12T11:44:20.718Z,18.60
2022-10-12T11:50:19.696Z,19.00
2022-10-12T11:55:33.944Z,19.40
2022-10-12T12:01:01.992Z,19.90
2022-10-12T12:06:44.910Z,20.00
2022-10-12T12:11:46.752Z,19.90
2022-10-12T12:16:49.692Z,19.60
2022-10-12T12:22:12.074Z,19.90
2022-10-12T12:27:41.979Z,20.00
2022-10-12T12:32:48.437Z,19.80
2022-10-12T12:38:05.094Z,19.60
2022-10-12T12:43:50.947Z,19.30
2022-10-12T12:48:52.710Z,19.00
2022-10-12T12:54:04.370Z,18.80
2022-10-12T12:59:15.243Z,18.70
2022-10-12T13:04:48.133Z,18.60
2022-10-12T13:10:16.953Z,18.60
2022-10-12T13:15:33.671Z,18.40
2022-10-12T13:20:38.885Z,18.10
2022-10-12T13:25:44.797Z,18.00
2022-10-12T13:30:59.724Z,18.00
2022-10-12T13:36:07.874Z,18.30
2022-10-12T13:41:12.744Z,18.40
2022-10-12T13:46:34.095Z,18.50
2022-10-12T13:51:35.928Z,18.50
2022-10-12T13:56:38.646Z,18.60
2022-10-12T14:01:56.451Z,18.50
2022-10-12T14:07:05.803Z,18.70
2022-10-12T14:12:08.869Z,18.60
2022-10-12T14:17:18.262Z,18.60
2022-10-12T14:22:26.323Z,18.40
2022-10-12T14:27:29.009Z,18.20
2022-10-12T14:32:42.205Z,18.00
2022-10-12T14:37:44.932Z,17.90
2022-10-12T14:43:24.203Z,17.80
2022-10-12T14:48:26.158Z,17.70
2022-10-12T14:53:29.543Z,17.60
2022-10-12T14:58:31.383Z,17.50
2022-10-12T15:03:33.296Z,17.40
2022-10-12T15:08:35.133Z,17.40
2022-10-12T15:13:36.978Z,17.30
2022-10-12T15:18:38.823Z,17.20
2022-10-12T15:23:40.809Z,17.20
2022-10-12T15:28:43.472Z,17.10
2022-10-12T15:33:45.477Z,17.00
2022-10-12T15:38:50.168Z,16.90
2022-10-12T15:43:51.993Z,16.70
2022-10-12T15:48:54.414Z,16.60
2022-10-12T15:53:56.324Z,16.40
2022-10-12T15:59:03.482Z,16.20
2022-10-12T16:04:07.748Z,16.00
2022-10-12T16:09:20.373Z,15.90
2022-10-12T16:14:23.392Z,15.70
2022-10-12T16:19:25.227Z,15.60
2022-10-12T16:24:27.129Z,15.60
2022-10-12T16:29:29.101Z,15.50
2022-10-12T16:34:31.479Z,15.40
2022-10-12T16:39:33.360Z,15.40
2022-10-12T16:44:35.275Z,15.30
2022-10-12T16:49:37.099Z,15.30
2022-10-12T16:54:39.327Z,15.20
2022-10-12T16:59:41.183Z,15.10
2022-10-12T17:04:43.086Z,15.00
2022-10-12T17:09:45.868Z,15.00
2022-10-12T17:14:47.908Z,14.90
2022-10-12T17:19:49.834Z,14.90
2022-10-12T17:24:51.870Z,14.90
2022-10-12T17:29:57.100Z,14.80
2022-10-12T17:34:58.984Z,14.70
2022-10-12T17:40:02.194Z,14.70
2022-10-12T17:45:04.613Z,14.60
2022-10-12T17:50:07.539Z,14.60
2022-10-12T17:55:24.342Z,14.60
2022-10-12T18:00:32.111Z,14.60
2022-10-12T18:05:34.367Z,14.60
2022-10-12T18:10:40.832Z,14.40
2022-10-12T18:15:45.980Z,14.30
2022-10-12T18:20:48.124Z,14.30
2022-10-12T18:25:51.156Z,14.20
2022-10-12T18:30:53.318Z,14.10
2022-10-12T18:35:55.221Z,14.00
2022-10-12T18:41:03.039Z,13.90
2022-10-12T18:46:09.448Z,13.80
2022-10-12T18:51:18.744Z,13.60
2022-10-12T18:56:30.808Z,13.50
2022-10-12T19:01:35.887Z,13.30
2022-10-12T19:06:41.483Z,13.20
2022-10-12T19:11:43.488Z,13.30
2022-10-12T19:16:45.934Z,13.20
2022-10-12T19:21:52.104Z,13.20
2022-10-12T19:26:54.022Z,13.10
2022-10-12T19:31:55.873Z,13.10
2022-10-12T19:37:00.732Z,13.10
2022-10-12T19:42:03.246Z,13.10
2022-10-12T19:47:06.181Z,13.00
2022-10-12T19:52:08.267Z,13.00
2022-10-12T19:57:10.164Z,12.90
2022-10-12T20:02:12.136Z,12.80
2022-10-12T20:07:13.968Z,12.70
2022-10-12T20:12:16.276Z,12.60
2022-10-12T20:17:22.996Z,12.60
2022-10-12T20:22:24.809Z,12.60
2022-10-12T20:27:26.860Z,12.40
2022-10-12T20:32:28.893Z,12.40
2022-10-12T20:37:32.444Z,12.30
2022-10-12T20:42:35.428Z,12.20
2022-10-12T20:47:39.643Z,12.10
2022-10-12T20:52:43.161Z,12.00
2022-10-12T20:57:45.113Z,11.90
2022-10-12T21:02:46.990Z,11.80
2022-10-12T21:07:48.874Z,11.70
2022-10-12T21:12:50.707Z,11.70
2022-10-12T21:17:52.561Z,11.60
2022-10-12T21:22:54.437Z,11.50
2022-10-12T21:27:56.293Z,11.50
2022-10-12T21:32:58.193Z,11.40
2022-10-12T21:38:00.010Z,11.40
2022-10-12T21:43:02.137Z,11.30
2022-10-12T21:48:04.079Z,11.30
2022-10-12T21:53:06.033Z,11.30
2022-10-12T21:58:07.861Z,11.20
2022-10-12T22:03:09.773Z,11.10
2022-10-12T22:08:11.652Z,11.10
2022-10-12T22:13:13.493Z,11.00
2022-10-12T22:18:15.370Z,11.00
2022-10-12T22:23:17.189Z,11.00
2022-10-12T22:28:19.068Z,11.00
2022-10-12T22:33:21.165Z,10.90
2022-10-12T22:38:23.221Z,10.90
2022-10-12T22:43:26.992Z,10.80
2022-10-12T22:48:29.289Z,10.70
2022-10-12T22:53:31.217Z,10.70
2022-10-12T22:58:33.762Z,10.70
2022-10-12T23:03:36.224Z,10.60
2022-10-12T23:08:38.126Z,10.70
2022-10-12T23:13:40.757Z,10.70
2022-10-12T23:18:43.045Z,10.80
2022-10-12T23:23:46.144Z,10.80
2022-10-12T23:28:48.912Z,10.90
2022-10-12T23:33:58.823Z,10.90
2022-10-12T23:39:01.567Z,10.90
2022-10-12T23:44:03.684Z,11.00
2022-10-12T23:49:05.540Z,11.00
2022-10-12T23:54:07.566Z,11.00
2022-10-12T23:59:09.456Z,11.00
